Nearby METAR Reports

 

KDFW - Dallas/Ft Worth, Texas, USA
Distance from station: SSE 10mi, 16km
Updated: Sun, 16-Jun-2019 4:10am CDT
Heavy thunderstorm, Rain, Mist, Overcast
Heavy thunderstorm, Rain, Mist, Overcast
 Wind from NNE
Wind: NNE 12 mph , 19 km/h, Gust: 22 mph , 35 km/h
Temperature: 66°F , 19°C
Dew Point: 64°F , 18°C
Humidity: 94%
Barometer: 29.86 inHg , 1011.2 hPa
Summary: Heavy thunderstorm, Rain, Mist
Clouds: Overcast
Visibility: 1 1/2 miles , 2.4 km
Cloud details: Few Clouds 3400 ft
Mostly cloudy 4600 ft
Overcast 6000 ft
2019/06/16 09:10 KDFW 160910Z 02010G19KT 1 1/2SM R17C/5000VP6000FT +TSRA BR FEW034 BKN046CB OVC060 19/18 A2986 RMK AO2 LTG DSNT ALQDS LTGICCG ALQDS TS ALQDS MOV SE P0007 T01890178
KDTO - Denton, Texas, USA
Distance from station: NNW 13mi, 21km
Updated: Sun, 16-Jun-2019 3:53am CDT
Light thunderstorm, Rain, Mostly cloudy
Light thunderstorm, Rain, Mostly cloudy
 Wind from ESE
Wind: ESE 8 mph , 13 km/h
Temperature: 66°F , 19°C
Dew Point: 64°F , 18°C
Humidity: 94%
Barometer: 29.86 inHg , 1011.2 hPa
Summary: Light thunderstorm, Rain
Clouds: Mostly cloudy
Visibility: 9 miles , 14 km
Cloud details: Few Clouds 4500 ft
Partly cloudy 8000 ft
Mostly cloudy 10000 ft
2019/06/16 08:53 KDTO 160853Z AUTO 12007KT 9SM -TSRA FEW045 SCT080 BKN100 19/18 A2986 RMK AO2 LTG DSNT ALQDS TSE08B12E49B50 PRESFR SLP102 P0024 60072 T01890178 50011
 
KAFW - Ft Worth/Allianc, Texas, USA
Distance from station: WSW 14mi, 22km
Updated: Sun, 16-Jun-2019 4:20am CDT
Light thunderstorm, Rain, Mist, Overcast
Light thunderstorm, Rain, Mist, Overcast
 Wind from NE
Wind: NE 14 mph , 22 km/h
Temperature: 66°F , 19°C
Dew Point: 64°F , 18°C
Humidity: 94%
Barometer: 29.86 inHg , 1011.2 hPa
Summary: Light thunderstorm, Rain, Mist
Clouds: Overcast
Visibility: 3 miles , 5 km
Cloud details: Partly cloudy 2700 ft
Mostly cloudy 4200 ft
Overcast 6000 ft
2019/06/16 09:20 KAFW 160920Z 05012KT 3SM -TSRA BR SCT027 BKN042CB OVC060 19/18 A2986 RMK AO2 TWR VIS 7 LTG DSNT ALQDS FRQ LTGICCG N-SE TS N-SE MOV E P0025 T01940183
KADS - Dallas/Addison, Texas, USA
Distance from station: ESE 17mi, 27km
Updated: Sun, 16-Jun-2019 4:15am CDT
Heavy thunderstorm, Rain, Overcast
Heavy thunderstorm, Rain, Overcast
 Wind from NE
Wind: NE 5 mph , 7 km/h
Temperature: 66°F , 19°C
Dew Point: 64°F , 18°C
Humidity: 94%
Barometer: 29.92 inHg , 1013.2 hPa
Summary: Heavy thunderstorm, Rain
Clouds: Overcast
Visibility: 5 miles , 8 km
Cloud details: Partly cloudy 1100 ft
Mostly cloudy 2600 ft
Overcast 4100 ft
2019/06/16 09:15 KADS 160915Z AUTO 05004KT 5SM +TSRA SCT011 BKN026 OVC041 19/18 A2992 RMK AO2 LTG DSNT ALQS T01900181
 
KDAL - Dallas/Love Fld, Texas, USA
Distance from station: SE 19mi, 30km
Updated: Sun, 16-Jun-2019 4:09am CDT
Light thunderstorm, Rain, Mist, Overcast
Light thunderstorm, Rain, Mist, Overcast
 Wind from ENE
Wind: ENE 7 mph , 11 km/h
Temperature: 68°F , 20°C
Dew Point: 64°F , 18°C
Humidity: 88%
Barometer: 29.90 inHg , 1012.5 hPa
Summary: Light thunderstorm, Rain, Mist
Clouds: Overcast
Visibility: 4 miles , 6 km
Cloud details: Few Clouds 2000 ft
Mostly cloudy 4200 ft
Overcast 4900 ft
2019/06/16 09:09 KDAL 160909Z 06006KT 4SM -TSRA BR FEW020 BKN042CB OVC049 20/18 A2990 RMK AO2 FRQ LTGICCG OHD TS OHD MOV SE P0009 T02000178
KFTW - Fort Worth, Texas, USA
Distance from station: SW 21mi, 34km
Updated: Sun, 16-Jun-2019 4:14am CDT
Light thunderstorm, Rain, Overcast
Light thunderstorm, Rain, Overcast
 Wind from E
Wind: E 9 mph , 15 km/h
Temperature: 66°F , 19°C
Dew Point: 64°F , 18°C
Humidity: 94%
Barometer: 29.87 inHg , 1011.5 hPa
Summary: Light thunderstorm, Rain
Clouds: Overcast
Visibility: 9 miles , 14 km
Cloud details: Few Clouds 700 ft
Partly cloudy 1200 ft
Overcast 3700 ft
2019/06/16 09:14 KFTW 160914Z 10008KT 9SM -TSRA FEW007 SCT012 OVC037 19/18 A2987 RMK AO2 LTG DSNT N-SE TSE0856B0858 P0003 T01890183
 
KGPM - Grand Prairie, Texas, USA
Distance from station: S 23mi, 37km
Updated: Sun, 16-Jun-2019 4:15am CDT
Overcast
Overcast
 Wind from NE
Wind: NE 9 mph , 15 km/h
Temperature: 66°F , 19°C
Dew Point: 66°F , 19°C
Humidity: 100%
Barometer: 29.91 inHg , 1012.9 hPa
Clouds: Overcast
Visibility: 1 1/4 miles , 2 km
Cloud details: Mostly cloudy 700 ft
Overcast 1400 ft
2019/06/16 09:15 KGPM 160915Z AUTO 05008KT 1 1/4SM BKN007 OVC014 19/19 A2991 RMK AO2 VIS 1/2V3 P0011 T01900190
KGKY - Arlington, Texas, USA
Distance from station: S 25mi, 41km
Updated: Sun, 16-Jun-2019 4:09am CDT
Light thunderstorm, Rain, Mist, Overcast
Light thunderstorm, Rain, Mist, Overcast
 Wind from NE
Wind: NE 10 mph , 17 km/h
Temperature: 66°F , 19°C
Dew Point: 64°F , 18°C
Humidity: 94%
Barometer: 29.90 inHg , 1012.5 hPa
Summary: Light thunderstorm, Rain, Mist
Clouds: Overcast
Visibility: 4 miles , 6 km
Cloud details: Few Clouds 500 ft
Mostly cloudy 3000 ft
Overcast 4000 ft
2019/06/16 09:09 KGKY 160909Z AUTO 04009KT 4SM -TSRA BR FEW005 BKN030 OVC040 19/18 A2990 RMK AO2 LTG DSNT NW-E TSB05 P0008 T01940183